Time;durP1;ratioP1;P1;durP2;ratioP2;P2;SDS_P1;SDS_P2;PMS_P1;PMS_P2;Temp;Humidity;BMP_temperature;BMP_pressure;BME280_temperature;BME280_humidity;BME280_pressure;Samples;Min_cycle;Max_cycle;Signal;HPM_P1;HPM_P2
2021/03/11 00:00:41;;;;;;;;;;;15.80;62.90;;;;;;5051785;28;19953;-76
2021/03/11 00:03:07;;;;;;;;;;;15.80;63.00;;;;;;5054296;28;19912;-74
2021/03/11 00:05:33;;;;;;;;;;;15.70;63.00;;;;;;5073762;28;19982;-74
2021/03/11 00:07:59;;;;;;;;;;;15.70;63.00;;;;;;5069559;28;20331;-74
2021/03/11 00:10:24;;;;;;;;;;;15.80;63.00;;;;;;5073201;28;19913;-75
2021/03/11 00:12:50;;;;;;;;;;;15.80;63.00;;;;;;5072660;28;20384;-73
2021/03/11 00:15:17;;;;;;;;;;;15.80;63.00;;;;;;5072779;28;19948;-74
2021/03/11 00:17:43;;;;;;;;;;;15.70;63.00;;;;;;5055007;28;19916;-75
2021/03/11 00:20:10;;;;;;;;;;;15.80;63.00;;;;;;5059444;28;19924;-74
2021/03/11 00:22:35;;;;;;;;;;;15.80;63.00;;;;;;5054361;28;19920;-74
2021/03/11 00:25:01;;;;;;;;;;;15.80;63.00;;;;;;5071436;28;19913;-74
2021/03/11 00:27:26;;;;;;;;;;;15.80;62.90;;;;;;5055304;28;19912;-74
2021/03/11 00:29:52;;;;;;;;;;;15.70;62.90;;;;;;5073685;28;19935;-76
2021/03/11 00:32:17;;;;;;;;;;;15.80;62.90;;;;;;5052955;28;20308;-76
2021/03/11 00:34:43;;;;;;;;;;;15.80;63.00;;;;;;5066721;28;20406;-74
2021/03/11 00:37:08;;;;;;;;;;;15.80;63.00;;;;;;5072478;28;19912;-74
2021/03/11 00:39:34;;;;;;;;;;;15.80;63.00;;;;;;5046152;28;19928;-74
2021/03/11 00:41:59;;;;;;;;;;;15.80;62.90;;;;;;5053763;28;20296;-74
2021/03/11 00:44:25;;;;;;;;;;;15.80;62.90;;;;;;5072098;28;19912;-74
2021/03/11 00:46:50;;;;;;;;;;;15.80;62.90;;;;;;5055484;28;19919;-74
2021/03/11 00:49:16;;;;;;;;;;;15.80;62.90;;;;;;5073431;28;19947;-74
2021/03/11 00:51:42;;;;;;;;;;;15.80;62.90;;;;;;5069280;28;19978;-74
2021/03/11 00:54:07;;;;;;;;;;;15.70;62.90;;;;;;5053681;28;19920;-74
2021/03/11 00:56:33;;;;;;;;;;;15.70;62.90;;;;;;5048312;28;19913;-75
2021/03/11 00:58:58;;;;;;;;;;;15.80;62.90;;;;;;5063508;28;19952;-74
2021/03/11 01:01:24;;;;;;;;;;;15.70;62.90;;;;;;5059169;28;19963;-74
2021/03/11 01:03:49;;;;;;;;;;;15.80;62.90;;;;;;5047490;28;19928;-75
2021/03/11 01:06:15;;;;;;;;;;;15.80;62.90;;;;;;5048103;28;20008;-74
2021/03/11 01:08:41;;;;;;;;;;;15.80;62.90;;;;;;5049703;28;19913;-75
2021/03/11 01:11:06;;;;;;;;;;;15.80;62.80;;;;;;5066400;28;19998;-74
2021/03/11 01:13:32;;;;;;;;;;;15.70;62.90;;;;;;5068648;28;19928;-75
2021/03/11 01:15:57;;;;;;;;;;;15.70;62.90;;;;;;5049327;28;19916;-74
2021/03/11 01:18:23;;;;;;;;;;;15.70;62.80;;;;;;5066496;28;19913;-74
2021/03/11 01:20:49;;;;;;;;;;;15.70;62.90;;;;;;5054777;28;20270;-75
2021/03/11 01:23:15;;;;;;;;;;;15.70;62.90;;;;;;5061074;28;20401;-74
2021/03/11 01:25:40;;;;;;;;;;;15.70;62.80;;;;;;5047086;28;19921;-74
2021/03/11 01:28:06;;;;;;;;;;;15.70;62.80;;;;;;5062558;28;20027;-74
2021/03/11 01:30:31;;;;;;;;;;;15.80;62.80;;;;;;5069833;28;19984;-75
2021/03/11 01:32:57;;;;;;;;;;;15.70;62.80;;;;;;5051216;28;19925;-74
2021/03/11 01:35:22;;;;;;;;;;;15.70;62.80;;;;;;5066489;28;19921;-74
2021/03/11 01:37:48;;;;;;;;;;;15.70;62.80;;;;;;5061207;28;20254;-76
2021/03/11 01:40:13;;;;;;;;;;;15.70;62.80;;;;;;5059777;28;20308;-75
2021/03/11 01:42:39;;;;;;;;;;;15.70;62.80;;;;;;5061760;28;20003;-74
2021/03/11 01:45:05;;;;;;;;;;;15.70;62.80;;;;;;5067096;28;19916;-74
2021/03/11 01:47:31;;;;;;;;;;;15.70;62.70;;;;;;5051533;28;20377;-74
2021/03/11 01:49:57;;;;;;;;;;;15.70;62.80;;;;;;5073051;28;19920;-74
2021/03/11 01:52:22;;;;;;;;;;;15.70;62.70;;;;;;5065080;28;19978;-74
2021/03/11 01:54:48;;;;;;;;;;;15.70;62.70;;;;;;5066862;28;19916;-76
2021/03/11 01:57:13;;;;;;;;;;;15.70;62.70;;;;;;5066411;28;19991;-74
2021/03/11 01:59:39;;;;;;;;;;;15.70;62.70;;;;;;5053191;28;19920;-74
2021/03/11 02:02:04;;;;;;;;;;;15.70;62.70;;;;;;5072441;28;19912;-75
2021/03/11 02:04:30;;;;;;;;;;;15.70;62.70;;;;;;5055797;28;19923;-79
2021/03/11 02:06:56;;;;;;;;;;;15.70;62.70;;;;;;5056148;28;19919;-75
2021/03/11 02:09:21;;;;;;;;;;;15.70;62.70;;;;;;5051497;28;20002;-75
2021/03/11 02:12:06;;;;;;;;;;;15.70;62.70;;;;;;5063896;28;19917;-76
2021/03/11 02:14:55;;;;;;;;;;;15.70;62.70;;;;;;5068626;28;19920;-74
2021/03/11 02:17:22;;;;;;;;;;;15.70;62.70;;;;;;5044482;28;19924;-75
2021/03/11 02:19:50;;;;;;;;;;;15.70;62.70;;;;;;5055944;28;19920;-77
2021/03/11 02:22:22;;;;;;;;;;;15.70;62.70;;;;;;5050580;28;19916;-74
2021/03/11 02:25:02;;;;;;;;;;;15.70;62.70;;;;;;5064218;28;19912;-76
2021/03/11 02:27:47;;;;;;;;;;;15.70;62.70;;;;;;5071354;28;20385;-75
2021/03/11 02:30:12;;;;;;;;;;;15.70;62.60;;;;;;5070310;28;20383;-74
2021/03/11 02:32:38;;;;;;;;;;;15.70;62.70;;;;;;5070293;28;19919;-74
2021/03/11 02:35:05;;;;;;;;;;;15.70;62.60;;;;;;5054398;28;19912;-75
2021/03/11 02:37:36;;;;;;;;;;;15.70;62.70;;;;;;5067882;28;20472;-75
2021/03/11 02:40:05;;;;;;;;;;;15.70;62.70;;;;;;5064542;28;19924;-75
2021/03/11 02:42:32;;;;;;;;;;;15.70;62.60;;;;;;5063814;28;19917;-74
2021/03/11 02:44:57;;;;;;;;;;;15.70;62.70;;;;;;5068046;28;19919;-74
2021/03/11 02:47:23;;;;;;;;;;;15.70;62.60;;;;;;5059442;28;19916;-74
2021/03/11 02:49:49;;;;;;;;;;;15.70;62.60;;;;;;5054157;28;20003;-75
2021/03/11 02:52:15;;;;;;;;;;;15.70;62.60;;;;;;5067575;28;19920;-74
2021/03/11 02:54:42;;;;;;;;;;;15.70;62.60;;;;;;5049779;28;19923;-74
2021/03/11 02:57:09;;;;;;;;;;;15.70;62.60;;;;;;5063341;28;20381;-74
2021/03/11 02:59:36;;;;;;;;;;;15.70;62.60;;;;;;5068073;28;20007;-74
2021/03/11 03:02:02;;;;;;;;;;;15.70;62.60;;;;;;5066736;28;19912;-74
2021/03/11 03:04:29;;;;;;;;;;;15.70;62.60;;;;;;5067641;28;19917;-74
2021/03/11 03:06:55;;;;;;;;;;;15.70;62.60;;;;;;5055027;28;19973;-75
2021/03/11 03:09:21;;;;;;;;;;;15.70;62.60;;;;;;5061883;28;19928;-74
2021/03/11 03:11:47;;;;;;;;;;;15.70;62.50;;;;;;5068446;28;19922;-76
2021/03/11 03:14:13;;;;;;;;;;;15.70;62.50;;;;;;5070505;28;19959;-74
2021/03/11 03:16:40;;;;;;;;;;;15.70;62.50;;;;;;5068203;28;20408;-74
2021/03/11 03:19:06;;;;;;;;;;;15.70;62.50;;;;;;5071677;28;19917;-74
2021/03/11 03:21:32;;;;;;;;;;;15.70;62.50;;;;;;5071940;28;20267;-78
2021/03/11 03:23:58;;;;;;;;;;;15.70;62.50;;;;;;5050651;28;19971;-75
2021/03/11 03:26:23;;;;;;;;;;;15.70;62.50;;;;;;5071801;28;19924;-74
2021/03/11 03:28:49;;;;;;;;;;;15.70;62.50;;;;;;5073121;28;20327;-75
2021/03/11 03:31:14;;;;;;;;;;;15.70;62.50;;;;;;5070015;28;19938;-74
2021/03/11 03:33:40;;;;;;;;;;;15.70;62.40;;;;;;5069045;28;19920;-74
2021/03/11 03:36:05;;;;;;;;;;;15.70;62.40;;;;;;5073373;28;19964;-74
2021/03/11 03:38:32;;;;;;;;;;;15.70;62.40;;;;;;5069199;28;20366;-75
2021/03/11 03:40:58;;;;;;;;;;;15.70;62.40;;;;;;5071051;28;19920;-74
2021/03/11 03:43:25;;;;;;;;;;;15.70;62.40;;;;;;5069176;28;19921;-74
2021/03/11 03:46:06;;;;;;;;;;;15.70;62.40;;;;;;5054483;28;19948;-75
2021/03/11 03:48:45;;;;;;;;;;;15.70;62.40;;;;;;5071988;28;19916;-74
2021/03/11 03:51:12;;;;;;;;;;;15.70;62.30;;;;;;5077878;28;20366;-76
2021/03/11 03:53:40;;;;;;;;;;;15.70;62.30;;;;;;5073029;28;19919;-74
2021/03/11 03:56:09;;;;;;;;;;;15.70;62.30;;;;;;5071850;28;19954;-74
2021/03/11 03:58:35;;;;;;;;;;;15.70;62.30;;;;;;5046821;28;20487;-74
2021/03/11 04:01:02;;;;;;;;;;;15.70;62.30;;;;;;5057795;28;19924;-75
2021/03/11 04:03:28;;;;;;;;;;;15.70;62.30;;;;;;5067157;28;19916;-74
2021/03/11 04:05:55;;;;;;;;;;;15.70;62.30;;;;;;5059435;28;19934;-74
2021/03/11 04:08:22;;;;;;;;;;;15.70;62.30;;;;;;5068130;28;19924;-74
2021/03/11 04:10:55;;;;;;;;;;;15.70;62.30;;;;;;5070318;28;20415;-77
2021/03/11 04:13:21;;;;;;;;;;;15.70;62.30;;;;;;5067964;28;20316;-74
2021/03/11 04:15:47;;;;;;;;;;;15.70;62.20;;;;;;5055438;28;19920;-74
2021/03/11 04:18:13;;;;;;;;;;;15.70;62.20;;;;;;5052648;28;19912;-74
2021/03/11 04:20:39;;;;;;;;;;;15.70;62.20;;;;;;5059496;28;19967;-74
2021/03/11 04:23:05;;;;;;;;;;;15.70;62.20;;;;;;5073896;28;20277;-74
2021/03/11 04:25:30;;;;;;;;;;;15.70;62.20;;;;;;5054583;28;19963;-74
2021/03/11 04:27:56;;;;;;;;;;;15.70;62.10;;;;;;5054238;28;19928;-74
2021/03/11 04:30:21;;;;;;;;;;;15.70;62.10;;;;;;5077736;28;20421;-74
2021/03/11 04:32:48;;;;;;;;;;;15.70;62.20;;;;;;5072549;28;19958;-76
2021/03/11 04:35:14;;;;;;;;;;;15.80;62.10;;;;;;5066249;28;20293;-74
2021/03/11 04:37:39;;;;;;;;;;;15.70;62.10;;;;;;5066428;28;19920;-75
2021/03/11 04:40:06;;;;;;;;;;;15.70;62.10;;;;;;5064062;28;19929;-74
2021/03/11 04:42:32;;;;;;;;;;;15.80;62.10;;;;;;5068934;28;19927;-76
2021/03/11 04:44:58;;;;;;;;;;;15.70;62.00;;;;;;5067333;28;20019;-74
2021/03/11 04:47:24;;;;;;;;;;;15.70;62.00;;;;;;5086951;28;19992;-74
2021/03/11 04:49:49;;;;;;;;;;;15.70;62.00;;;;;;5069231;28;19917;-74
2021/03/11 04:52:15;;;;;;;;;;;15.70;62.00;;;;;;5054715;28;19920;-74
2021/03/11 04:54:41;;;;;;;;;;;15.80;62.00;;;;;;5054036;28;20033;-75
2021/03/11 04:57:06;;;;;;;;;;;15.70;62.00;;;;;;5064064;28;19912;-74
2021/03/11 04:59:32;;;;;;;;;;;15.80;62.00;;;;;;5069736;28;20354;-77
2021/03/11 05:01:59;;;;;;;;;;;15.80;62.00;;;;;;5058365;28;19947;-74
2021/03/11 05:04:25;;;;;;;;;;;15.80;62.00;;;;;;5059073;28;19919;-74
2021/03/11 05:06:51;;;;;;;;;;;15.80;62.00;;;;;;5064787;28;19960;-75
2021/03/11 05:09:16;;;;;;;;;;;15.70;61.90;;;;;;5072244;28;19946;-75
2021/03/11 05:11:42;;;;;;;;;;;15.70;61.90;;;;;;5058110;28;19963;-75
2021/03/11 05:14:08;;;;;;;;;;;15.70;61.90;;;;;;5067052;28;19920;-74
2021/03/11 05:16:33;;;;;;;;;;;15.70;61.90;;;;;;5072279;28;19917;-75
2021/03/11 05:18:59;;;;;;;;;;;15.80;61.90;;;;;;5069264;28;19912;-75
2021/03/11 05:21:25;;;;;;;;;;;15.80;61.90;;;;;;5051162;28;19928;-74
2021/03/11 05:23:56;;;;;;;;;;;15.80;61.80;;;;;;5066271;28;19917;-74
2021/03/11 05:26:22;;;;;;;;;;;15.80;61.80;;;;;;5040958;28;19917;-76
2021/03/11 05:28:47;;;;;;;;;;;15.80;61.80;;;;;;5063262;28;19943;-75
2021/03/11 05:31:13;;;;;;;;;;;15.80;61.90;;;;;;5064925;28;20389;-74
2021/03/11 05:33:38;;;;;;;;;;;15.80;61.80;;;;;;5050037;28;19913;-73
2021/03/11 05:36:04;;;;;;;;;;;15.80;61.90;;;;;;5031249;28;20354;-74
2021/03/11 05:38:30;;;;;;;;;;;15.80;61.80;;;;;;5045465;28;19913;-74
2021/03/11 05:40:55;;;;;;;;;;;15.80;61.80;;;;;;5046642;28;19921;-74
2021/03/11 05:43:21;;;;;;;;;;;15.80;61.80;;;;;;5030253;28;19928;-74
2021/03/11 05:45:46;;;;;;;;;;;15.80;61.80;;;;;;5051041;28;20350;-74
2021/03/11 05:48:13;;;;;;;;;;;15.80;61.80;;;;;;5026770;28;20322;-75
2021/03/11 05:50:39;;;;;;;;;;;15.80;61.90;;;;;;5046333;28;20012;-73
2021/03/11 05:53:05;;;;;;;;;;;15.80;61.80;;;;;;5042930;28;20008;-74
2021/03/11 05:55:31;;;;;;;;;;;15.80;61.80;;;;;;5043329;28;19987;-73
2021/03/11 05:57:56;;;;;;;;;;;15.80;61.80;;;;;;5034338;28;19913;-73
2021/03/11 06:00:22;;;;;;;;;;;15.80;61.80;;;;;;5049931;28;19921;-75
2021/03/11 06:02:57;;;;;;;;;;;15.80;61.80;;;;;;5047000;28;19919;-76
2021/03/11 06:05:22;;;;;;;;;;;15.80;61.80;;;;;;5030525;28;19960;-75
2021/03/11 06:07:49;;;;;;;;;;;15.80;61.80;;;;;;5042729;28;19964;-74
2021/03/11 06:10:15;;;;;;;;;;;15.80;61.80;;;;;;5042455;28;19913;-74
2021/03/11 06:12:42;;;;;;;;;;;15.80;61.70;;;;;;5029196;28;19998;-75
2021/03/11 06:15:12;;;;;;;;;;;15.80;61.80;;;;;;5048913;28;19967;-74
2021/03/11 06:17:38;;;;;;;;;;;15.80;61.70;;;;;;5050589;28;19920;-73
2021/03/11 06:20:04;;;;;;;;;;;15.80;61.70;;;;;;5036138;28;20282;-74
2021/03/11 06:22:30;;;;;;;;;;;15.80;61.70;;;;;;5044699;28;20696;-73
2021/03/11 06:24:55;;;;;;;;;;;15.80;61.70;;;;;;5040561;28;20254;-73
2021/03/11 06:27:21;;;;;;;;;;;15.80;61.70;;;;;;5028278;28;19917;-74
2021/03/11 06:29:47;;;;;;;;;;;15.80;61.70;;;;;;5081876;28;20441;-74
2021/03/11 06:32:12;;;;;;;;;;;15.80;61.60;;;;;;5068982;28;19918;-73
2021/03/11 06:34:45;;;;;;;;;;;15.80;61.60;;;;;;5067057;28;19956;-73
2021/03/11 06:37:11;;;;;;;;;;;15.80;61.60;;;;;;5054209;28;20328;-73
2021/03/11 06:39:38;;;;;;;;;;;15.80;61.60;;;;;;5067000;28;19943;-74
2021/03/11 06:42:04;;;;;;;;;;;15.80;61.60;;;;;;5055721;28;20311;-74
2021/03/11 06:44:36;;;;;;;;;;;15.80;61.60;;;;;;5065222;28;20365;-74
2021/03/11 06:47:03;;;;;;;;;;;15.80;61.60;;;;;;5048849;28;19921;-74
2021/03/11 06:49:28;;;;;;;;;;;15.80;61.60;;;;;;5068623;28;19925;-73
2021/03/11 06:52:11;;;;;;;;;;;15.80;61.50;;;;;;5063891;28;19974;-73
2021/03/11 06:54:52;;;;;;;;;;;15.80;61.50;;;;;;5049891;28;19919;-74
2021/03/11 06:57:30;;;;;;;;;;;15.80;61.50;;;;;;5050318;28;19912;-75
2021/03/11 06:59:57;;;;;;;;;;;15.80;61.50;;;;;;5052708;28;19992;-73
2021/03/11 07:02:23;;;;;;;;;;;15.90;61.50;;;;;;5053108;28;19913;-74
2021/03/11 07:04:49;;;;;;;;;;;15.80;61.40;;;;;;5055269;28;19913;-74
2021/03/11 07:07:24;;;;;;;;;;;15.80;61.40;;;;;;5048461;28;19928;-74
2021/03/11 07:09:50;;;;;;;;;;;15.90;61.40;;;;;;5047488;28;19912;-73
2021/03/11 07:12:16;;;;;;;;;;;15.90;61.40;;;;;;5053081;28;20357;-73
2021/03/11 07:14:41;;;;;;;;;;;15.90;61.40;;;;;;5074671;28;19924;-73
2021/03/11 07:17:17;;;;;;;;;;;15.90;61.30;;;;;;5057352;28;20418;-73
2021/03/11 07:20:01;;;;;;;;;;;15.90;61.30;;;;;;5074802;28;19928;-73
2021/03/11 07:22:27;;;;;;;;;;;15.90;61.30;;;;;;5067760;28;19927;-74
2021/03/11 07:24:52;;;;;;;;;;;15.90;61.20;;;;;;5066428;28;19924;-76
2021/03/11 07:27:18;;;;;;;;;;;15.90;61.10;;;;;;5069927;28;19949;-76
2021/03/11 07:29:59;;;;;;;;;;;15.90;61.10;;;;;;5058099;28;20134;-74
2021/03/11 07:32:25;;;;;;;;;;;16.00;61.10;;;;;;5068937;28;19948;-73
2021/03/11 07:34:51;;;;;;;;;;;16.00;61.10;;;;;;5058292;28;19917;-73
2021/03/11 07:37:17;;;;;;;;;;;16.00;61.10;;;;;;5056531;28;19913;-74
2021/03/11 07:39:44;;;;;;;;;;;16.00;61.10;;;;;;5068597;28;19925;-74
2021/03/11 07:42:10;;;;;;;;;;;16.00;61.10;;;;;;5066117;28;20319;-73
2021/03/11 07:44:35;;;;;;;;;;;16.00;61.10;;;;;;5078883;28;19931;-73
2021/03/11 07:47:03;;;;;;;;;;;16.00;61.00;;;;;;5070056;28;19948;-74
2021/03/11 07:49:29;;;;;;;;;;;16.00;61.10;;;;;;5073409;28;19916;-73
2021/03/11 07:51:58;;;;;;;;;;;16.00;61.00;;;;;;5074208;28;20420;-73
2021/03/11 07:54:24;;;;;;;;;;;16.00;61.00;;;;;;5074480;28;19928;-73
2021/03/11 07:56:49;;;;;;;;;;;16.00;61.00;;;;;;5052198;28;19916;-73
2021/03/11 07:59:15;;;;;;;;;;;16.00;61.00;;;;;;5072360;28;19999;-73
2021/03/11 08:01:49;;;;;;;;;;;16.00;61.10;;;;;;5072597;28;20274;-73
2021/03/11 08:04:16;;;;;;;;;;;16.00;61.10;;;;;;5057056;28;19920;-73
2021/03/11 08:06:42;;;;;;;;;;;16.00;61.10;;;;;;5057884;28;20507;-73
2021/03/11 08:09:07;;;;;;;;;;;16.00;61.10;;;;;;5071449;28;20000;-73
2021/03/11 08:11:37;;;;;;;;;;;16.00;61.20;;;;;;5067285;28;20372;-75
2021/03/11 08:14:22;;;;;;;;;;;16.00;61.10;;;;;;5072183;28;19956;-75
2021/03/11 08:16:52;;;;;;;;;;;16.00;61.00;;;;;;5072902;28;19920;-75
2021/03/11 08:19:47;;;;;;;;;;;16.00;61.00;;;;;;5075532;28;19920;-75
2021/03/11 08:22:12;;;;;;;;;;;16.00;61.00;;;;;;5063554;28;20379;-73
2021/03/11 08:24:45;;;;;;;;;;;16.00;61.00;;;;;;5058799;28;19921;-75
2021/03/11 08:27:30;;;;;;;;;;;16.10;61.00;;;;;;5048562;28;20025;-74
2021/03/11 08:29:58;;;;;;;;;;;16.10;60.90;;;;;;5049094;28;19920;-73
2021/03/11 08:32:42;;;;;;;;;;;16.10;60.80;;;;;;5045988;28;19967;-73
2021/03/11 08:35:38;;;;;;;;;;;16.10;60.70;;;;;;5067824;28;20325;-73
2021/03/11 08:38:19;;;;;;;;;;;16.10;60.70;;;;;;5048060;28;19920;-73
2021/03/11 08:40:46;;;;;;;;;;;16.10;60.60;;;;;;5047544;28;19920;-74
2021/03/11 08:43:31;;;;;;;;;;;16.20;60.60;;;;;;5063699;28;19916;-73
2021/03/11 08:45:57;;;;;;;;;;;16.10;60.70;;;;;;5074865;28;19912;-73
2021/03/11 08:48:23;;;;;;;;;;;16.10;60.60;;;;;;5073876;28;19920;-74
2021/03/11 08:50:49;;;;;;;;;;;16.10;60.60;;;;;;5073091;28;20291;-74
2021/03/11 08:53:33;;;;;;;;;;;16.20;60.60;;;;;;5050273;28;19919;-73
2021/03/11 08:55:59;;;;;;;;;;;16.20;60.60;;;;;;5065740;28;19962;-73
2021/03/11 08:58:25;;;;;;;;;;;16.20;60.60;;;;;;5068497;28;19913;-73
2021/03/11 09:01:01;;;;;;;;;;;16.20;60.70;;;;;;5053952;28;19971;-73
2021/03/11 09:03:40;;;;;;;;;;;16.20;60.90;;;;;;5056094;28;20415;-73
2021/03/11 09:06:06;;;;;;;;;;;16.20;60.80;;;;;;5048532;28;19912;-73
2021/03/11 09:08:36;;;;;;;;;;;16.10;60.70;;;;;;5064076;28;19913;-75
2021/03/11 09:11:08;;;;;;;;;;;16.20;60.70;;;;;;5073164;28;19959;-74
2021/03/11 09:13:34;;;;;;;;;;;16.10;60.70;;;;;;5049756;28;19920;-74
2021/03/11 09:16:00;;;;;;;;;;;16.20;60.60;;;;;;5069543;28;20301;-73
2021/03/11 09:18:27;;;;;;;;;;;16.20;60.60;;;;;;5076399;28;19913;-74
2021/03/11 09:20:53;;;;;;;;;;;16.20;60.50;;;;;;5055724;28;19925;-73
2021/03/11 09:23:18;;;;;;;;;;;16.20;60.50;;;;;;5071836;28;19966;-73
2021/03/11 09:25:49;;;;;;;;;;;16.20;60.50;;;;;;5065239;28;20371;-73
2021/03/11 09:28:15;;;;;;;;;;;16.20;60.50;;;;;;5056980;28;20088;-73
2021/03/11 09:30:41;;;;;;;;;;;16.20;60.50;;;;;;5055653;28;19917;-74
2021/03/11 09:33:07;;;;;;;;;;;16.20;60.50;;;;;;5068017;28;19920;-74
2021/03/11 09:35:32;;;;;;;;;;;16.20;60.40;;;;;;5070011;28;20411;-74
2021/03/11 09:37:59;;;;;;;;;;;16.30;60.40;;;;;;5066985;28;19913;-73
2021/03/11 09:40:44;;;;;;;;;;;16.30;60.40;;;;;;5064690;28;20359;-73
2021/03/11 09:43:14;;;;;;;;;;;16.30;60.40;;;;;;5062718;28;19913;-74
2021/03/11 09:45:42;;;;;;;;;;;16.30;60.30;;;;;;5065596;28;19912;-73
2021/03/11 09:48:08;;;;;;;;;;;16.30;60.30;;;;;;5051948;28;19913;-75
2021/03/11 09:50:34;;;;;;;;;;;16.30;60.30;;;;;;5058369;28;20047;-74
2021/03/11 09:53:01;;;;;;;;;;;16.30;60.30;;;;;;5063065;28;19916;-73
2021/03/11 09:55:26;;;;;;;;;;;16.30;60.20;;;;;;5043147;28;19920;-74
2021/03/11 09:57:52;;;;;;;;;;;16.30;60.20;;;;;;5061000;28;19920;-74
2021/03/11 10:00:24;;;;;;;;;;;16.30;60.20;;;;;;5049277;28;20337;-75
2021/03/11 10:02:55;;;;;;;;;;;16.30;60.10;;;;;;5046061;28;19947;-73
2021/03/11 10:05:21;;;;;;;;;;;16.30;60.10;;;;;;5071437;28;19912;-74
2021/03/11 10:07:54;;;;;;;;;;;16.30;60.10;;;;;;5061323;28;19998;-76
2021/03/11 10:10:20;;;;;;;;;;;16.30;60.00;;;;;;5057029;28;19916;-74
2021/03/11 10:12:45;;;;;;;;;;;16.30;60.00;;;;;;5046981;28;19920;-74
2021/03/11 10:15:16;;;;;;;;;;;16.40;60.00;;;;;;5071205;28;20369;-73
2021/03/11 10:17:46;;;;;;;;;;;16.40;59.90;;;;;;5050644;28;19917;-73
2021/03/11 10:20:26;;;;;;;;;;;16.40;59.90;;;;;;5049847;28;20070;-76
2021/03/11 10:22:52;;;;;;;;;;;16.40;59.80;;;;;;5058918;28;20380;-75
2021/03/11 10:25:18;;;;;;;;;;;16.40;60.00;;;;;;5042987;28;19975;-75
2021/03/11 10:27:51;;;;;;;;;;;16.40;60.00;;;;;;5060394;28;19943;-73
2021/03/11 10:30:23;;;;;;;;;;;16.40;60.00;;;;;;5067871;28;20365;-74
2021/03/11 10:32:56;;;;;;;;;;;16.40;59.90;;;;;;5060911;28;19912;-74
2021/03/11 10:35:27;;;;;;;;;;;16.40;60.00;;;;;;5048603;28;20007;-74
2021/03/11 10:37:53;;;;;;;;;;;16.40;60.00;;;;;;5048966;28;19912;-74
2021/03/11 10:40:25;;;;;;;;;;;16.40;60.00;;;;;;5061028;28;21482;-73
2021/03/11 10:42:54;;;;;;;;;;;16.50;60.00;;;;;;5070827;28;19924;-74
2021/03/11 10:45:22;;;;;;;;;;;16.50;59.90;;;;;;5055470;28;19921;-74
2021/03/11 10:48:00;;;;;;;;;;;16.50;59.80;;;;;;5058221;28;19920;-76
2021/03/11 10:50:26;;;;;;;;;;;16.50;59.70;;;;;;5051267;28;19959;-73
2021/03/11 10:52:54;;;;;;;;;;;16.60;59.70;;;;;;5046319;28;19959;-75
2021/03/11 10:55:46;;;;;;;;;;;16.60;59.70;;;;;;5059323;28;20474;-73
2021/03/11 10:58:22;;;;;;;;;;;16.60;59.60;;;;;;5040864;28;19927;-73
2021/03/11 11:00:48;;;;;;;;;;;16.50;59.60;;;;;;5071495;28;19959;-75
2021/03/11 11:03:13;;;;;;;;;;;16.50;59.70;;;;;;5074564;28;19966;-74
2021/03/11 11:05:39;;;;;;;;;;;16.60;59.60;;;;;;5049777;28;19913;-74
2021/03/11 11:08:08;;;;;;;;;;;16.60;59.60;;;;;;5064682;28;20405;-74
2021/03/11 11:10:34;;;;;;;;;;;16.60;59.50;;;;;;5061175;28;20606;-74
2021/03/11 11:13:00;;;;;;;;;;;16.60;59.60;;;;;;5045336;28;19912;-74
2021/03/11 11:15:27;;;;;;;;;;;16.60;59.70;;;;;;5051400;28;20245;-76
2021/03/11 11:17:53;;;;;;;;;;;16.50;59.80;;;;;;5050803;28;19951;-76
2021/03/11 11:20:18;;;;;;;;;;;16.50;59.80;;;;;;5049949;28;20350;-77
2021/03/11 11:22:44;;;;;;;;;;;16.50;59.80;;;;;;5050109;28;19958;-76
2021/03/11 11:25:10;;;;;;;;;;;16.60;59.90;;;;;;5047816;28;19913;-78
2021/03/11 11:27:36;;;;;;;;;;;16.60;59.90;;;;;;5060262;28;19913;-77
2021/03/11 11:30:05;;;;;;;;;;;16.60;59.90;;;;;;5052227;28;20035;-76
2021/03/11 11:32:31;;;;;;;;;;;16.60;59.90;;;;;;5047073;28;20192;-76
2021/03/11 11:35:01;;;;;;;;;;;16.60;60.10;;;;;;5053474;28;19913;-76
2021/03/11 11:37:27;;;;;;;;;;;16.60;60.10;;;;;;5028537;28;19959;-78
2021/03/11 11:39:52;;;;;;;;;;;16.70;60.10;;;;;;5040273;28;19933;-77
2021/03/11 11:42:18;;;;;;;;;;;16.60;60.00;;;;;;5023851;28;20290;-77
2021/03/11 11:44:44;;;;;;;;;;;16.70;59.90;;;;;;5035144;28;19912;-76
2021/03/11 11:47:10;;;;;;;;;;;16.70;59.90;;;;;;5047053;28;19924;-76
2021/03/11 11:49:36;;;;;;;;;;;16.60;60.00;;;;;;5049214;28;19912;-76
2021/03/11 11:52:01;;;;;;;;;;;16.70;60.00;;;;;;5045076;28;20377;-78
2021/03/11 11:54:27;;;;;;;;;;;16.60;60.00;;;;;;5023867;28;19917;-76
2021/03/11 11:56:53;;;;;;;;;;;16.60;60.00;;;;;;5041733;28;19959;-77
2021/03/11 11:59:19;;;;;;;;;;;16.60;60.00;;;;;;5048937;28;19913;-77
2021/03/11 12:01:45;;;;;;;;;;;16.60;60.10;;;;;;5053751;28;20384;-75
2021/03/11 12:04:11;;;;;;;;;;;16.60;60.10;;;;;;5051071;28;19921;-76
2021/03/11 12:06:37;;;;;;;;;;;16.60;60.10;;;;;;5055984;28;19921;-76
2021/03/11 12:09:03;;;;;;;;;;;16.60;60.10;;;;;;5046163;28;19921;-78
2021/03/11 12:11:28;;;;;;;;;;;16.60;60.00;;;;;;5037254;28;19940;-76
2021/03/11 12:13:57;;;;;;;;;;;16.60;60.00;;;;;;5054226;28;20003;-76
2021/03/11 12:16:22;;;;;;;;;;;16.70;59.90;;;;;;5035816;28;19924;-76
2021/03/11 12:18:48;;;;;;;;;;;16.70;59.90;;;;;;5035297;28;19912;-78
2021/03/11 12:21:14;;;;;;;;;;;16.70;59.90;;;;;;5033894;28;19926;-75
2021/03/11 12:23:40;;;;;;;;;;;16.70;59.80;;;;;;5028697;28;19916;-76
2021/03/11 12:26:05;;;;;;;;;;;16.80;59.80;;;;;;5037416;28;19920;-76
2021/03/11 12:28:31;;;;;;;;;;;16.80;59.70;;;;;;5029855;28;19933;-78
2021/03/11 12:30:56;;;;;;;;;;;16.70;59.70;;;;;;5044563;28;19913;-76
2021/03/11 12:33:25;;;;;;;;;;;16.80;59.60;;;;;;5051665;28;20354;-76
2021/03/11 12:35:51;;;;;;;;;;;16.80;59.60;;;;;;5051845;28;20024;-76
2021/03/11 12:38:22;;;;;;;;;;;16.80;59.60;;;;;;5028651;28;20328;-78
2021/03/11 12:40:48;;;;;;;;;;;16.80;59.60;;;;;;5046086;28;20056;-78
2021/03/11 12:43:13;;;;;;;;;;;16.80;59.50;;;;;;5044132;28;19920;-75
2021/03/11 12:45:39;;;;;;;;;;;16.80;59.50;;;;;;5030777;28;19942;-74
2021/03/11 12:48:04;;;;;;;;;;;16.80;59.50;;;;;;5048955;28;19917;-75
2021/03/11 12:50:30;;;;;;;;;;;16.80;59.50;;;;;;5032037;28;19928;-74
2021/03/11 12:52:55;;;;;;;;;;;16.80;59.50;;;;;;5049669;28;19942;-75
2021/03/11 12:55:21;;;;;;;;;;;16.80;59.50;;;;;;5045800;28;19916;-75
2021/03/11 12:57:47;;;;;;;;;;;16.80;59.40;;;;;;5050491;28;19944;-75
2021/03/11 13:00:13;;;;;;;;;;;16.80;59.40;;;;;;5049506;28;19929;-74
2021/03/11 13:02:38;;;;;;;;;;;16.80;59.50;;;;;;5050115;28;20282;-74
2021/03/11 13:05:04;;;;;;;;;;;16.80;59.50;;;;;;5035628;28;19913;-74
2021/03/11 13:07:30;;;;;;;;;;;16.80;59.50;;;;;;5032567;28;19921;-74
2021/03/11 13:09:55;;;;;;;;;;;16.80;59.50;;;;;;5032769;28;19928;-75
2021/03/11 13:12:21;;;;;;;;;;;16.80;59.50;;;;;;5050540;28;19923;-75
2021/03/11 13:14:47;;;;;;;;;;;16.80;59.40;;;;;;5048321;28;20012;-74
2021/03/11 13:17:12;;;;;;;;;;;16.80;59.50;;;;;;5032201;28;19943;-74
2021/03/11 13:19:38;;;;;;;;;;;16.80;59.50;;;;;;5047273;28;19921;-74
2021/03/11 13:22:03;;;;;;;;;;;16.80;59.50;;;;;;5037233;28;19919;-75
2021/03/11 13:24:29;;;;;;;;;;;16.80;59.50;;;;;;5046378;28;20389;-75
2021/03/11 13:26:55;;;;;;;;;;;16.80;59.50;;;;;;5027113;28;19968;-75
2021/03/11 13:29:23;;;;;;;;;;;16.80;59.50;;;;;;5050459;28;20267;-75
2021/03/11 13:31:48;;;;;;;;;;;16.80;59.50;;;;;;5048455;28;19920;-75
2021/03/11 13:34:19;;;;;;;;;;;16.80;59.40;;;;;;5046687;28;19936;-75
2021/03/11 13:36:44;;;;;;;;;;;16.80;59.40;;;;;;5048990;28;19921;-75
2021/03/11 13:39:10;;;;;;;;;;;16.90;59.40;;;;;;5042753;28;19913;-74
2021/03/11 13:41:36;;;;;;;;;;;16.80;59.40;;;;;;5026234;28;20329;-74
2021/03/11 13:44:01;;;;;;;;;;;16.80;59.40;;;;;;5028065;28;19916;-75
2021/03/11 13:46:29;;;;;;;;;;;16.80;59.40;;;;;;5048907;28;20310;-74
2021/03/11 13:48:54;;;;;;;;;;;16.90;59.30;;;;;;5028615;28;20348;-75
2021/03/11 13:51:20;;;;;;;;;;;16.90;59.30;;;;;;5047578;28;19913;-78
2021/03/11 13:53:46;;;;;;;;;;;16.90;59.30;;;;;;5027240;28;19913;-74
2021/03/11 13:56:11;;;;;;;;;;;16.90;59.30;;;;;;5045009;28;19921;-75
2021/03/11 13:58:36;;;;;;;;;;;16.90;59.30;;;;;;5045002;28;19913;-74
2021/03/11 14:01:03;;;;;;;;;;;16.90;59.30;;;;;;5046467;28;19921;-77
2021/03/11 14:03:28;;;;;;;;;;;16.90;59.30;;;;;;5046832;28;19917;-74
2021/03/11 14:05:54;;;;;;;;;;;16.90;59.30;;;;;;5031706;28;19927;-76
2021/03/11 14:08:19;;;;;;;;;;;16.90;59.30;;;;;;5047372;28;19913;-77
2021/03/11 14:10:45;;;;;;;;;;;16.90;59.20;;;;;;5043205;28;19913;-75
2021/03/11 14:13:10;;;;;;;;;;;16.90;59.20;;;;;;5027487;28;19913;-76
2021/03/11 14:15:36;;;;;;;;;;;16.90;59.10;;;;;;5050677;28;20392;-73
2021/03/11 14:18:01;;;;;;;;;;;16.90;59.10;;;;;;5034662;28;20313;-75